sensor_id;sensor_type;location;lat;lon;timestamp;P1;durP1;ratioP1;P2;durP2;ratioP2
48034;SDS011;33812;46.480;6.834;2024-03-02T00:03:22;2.63;;;1.25;;
48034;SDS011;33812;46.480;6.834;2024-03-02T00:07:23;2.60;;;1.40;;
48034;SDS011;33812;46.480;6.834;2024-03-02T00:11:27;2.13;;;1.45;;
48034;SDS011;33812;46.480;6.834;2024-03-02T00:15:41;2.33;;;1.20;;
48034;SDS011;33812;46.480;6.834;2024-03-02T00:19:47;1.23;;;1.10;;
48034;SDS011;33812;46.480;6.834;2024-03-02T00:23:48;2.20;;;1.13;;
48034;SDS011;33812;46.480;6.834;2024-03-02T00:27:53;1.33;;;1.13;;
48034;SDS011;33812;46.480;6.834;2024-03-02T00:31:55;2.38;;;1.05;;
48034;SDS011;33812;46.480;6.834;2024-03-02T00:35:58;1.88;;;1.10;;
48034;SDS011;33812;46.480;6.834;2024-03-02T00:40:01;1.52;;;1.05;;
48034;SDS011;33812;46.480;6.834;2024-03-02T00:44:06;2.13;;;1.10;;
48034;SDS011;33812;46.480;6.834;2024-03-02T00:48:11;2.40;;;1.40;;
48034;SDS011;33812;46.480;6.834;2024-03-02T00:52:16;2.13;;;1.23;;
48034;SDS011;33812;46.480;6.834;2024-03-02T00:56:18;1.20;;;1.10;;
48034;SDS011;33812;46.480;6.834;2024-03-02T01:00:21;2.90;;;1.20;;
48034;SDS011;33812;46.480;6.834;2024-03-02T01:04:23;1.48;;;1.10;;
48034;SDS011;33812;46.480;6.834;2024-03-02T01:08:25;1.50;;;0.90;;
48034;SDS011;33812;46.480;6.834;2024-03-02T01:12:27;1.30;;;1.13;;
48034;SDS011;33812;46.480;6.834;2024-03-02T01:16:30;1.35;;;1.13;;
48034;SDS011;33812;46.480;6.834;2024-03-02T01:20:33;3.17;;;0.90;;
48034;SDS011;33812;46.480;6.834;2024-03-02T01:24:35;1.55;;;0.90;;
48034;SDS011;33812;46.480;6.834;2024-03-02T01:28:36;2.20;;;1.20;;
48034;SDS011;33812;46.480;6.834;2024-03-02T01:32:39;1.45;;;0.90;;
48034;SDS011;33812;46.480;6.834;2024-03-02T01:36:41;1.10;;;1.00;;
48034;SDS011;33812;46.480;6.834;2024-03-02T01:40:43;1.42;;;0.80;;
48034;SDS011;33812;46.480;6.834;2024-03-02T01:44:46;1.65;;;1.00;;
48034;SDS011;33812;46.480;6.834;2024-03-02T01:48:49;1.10;;;0.98;;
48034;SDS011;33812;46.480;6.834;2024-03-02T01:52:51;3.05;;;1.05;;
48034;SDS011;33812;46.480;6.834;2024-03-02T01:56:53;1.85;;;1.15;;
48034;SDS011;33812;46.480;6.834;2024-03-02T02:00:55;1.45;;;1.13;;
48034;SDS011;33812;46.480;6.834;2024-03-02T02:04:58;1.05;;;0.90;;
48034;SDS011;33812;46.480;6.834;2024-03-02T02:09:00;1.50;;;1.00;;
48034;SDS011;33812;46.480;6.834;2024-03-02T02:13:02;2.15;;;1.08;;
48034;SDS011;33812;46.480;6.834;2024-03-02T02:17:04;1.10;;;1.00;;
48034;SDS011;33812;46.480;6.834;2024-03-02T02:21:07;0.88;;;0.80;;
48034;SDS011;33812;46.480;6.834;2024-03-02T02:25:10;1.25;;;0.93;;
48034;SDS011;33812;46.480;6.834;2024-03-02T02:29:12;2.15;;;1.10;;
48034;SDS011;33812;46.480;6.834;2024-03-02T02:33:14;1.73;;;1.05;;
48034;SDS011;33812;46.480;6.834;2024-03-02T02:37:16;4.00;;;1.10;;
48034;SDS011;33812;46.480;6.834;2024-03-02T02:41:19;2.80;;;1.17;;
48034;SDS011;33812;46.480;6.834;2024-03-02T02:45:21;2.63;;;1.08;;
48034;SDS011;33812;46.480;6.834;2024-03-02T02:49:22;1.02;;;0.80;;
48034;SDS011;33812;46.480;6.834;2024-03-02T02:53:24;1.10;;;0.80;;
48034;SDS011;33812;46.480;6.834;2024-03-02T02:57:27;1.85;;;1.00;;
48034;SDS011;33812;46.480;6.834;2024-03-02T03:01:31;1.08;;;0.88;;
48034;SDS011;33812;46.480;6.834;2024-03-02T03:05:33;0.98;;;0.70;;
48034;SDS011;33812;46.480;6.834;2024-03-02T03:09:36;14.73;;;1.48;;
48034;SDS011;33812;46.480;6.834;2024-03-02T03:13:40;1.40;;;0.80;;
48034;SDS011;33812;46.480;6.834;2024-03-02T03:17:42;0.98;;;0.65;;
48034;SDS011;33812;46.480;6.834;2024-03-02T03:21:43;0.93;;;0.82;;
48034;SDS011;33812;46.480;6.834;2024-03-02T03:25:45;1.00;;;0.80;;
48034;SDS011;33812;46.480;6.834;2024-03-02T03:29:48;2.05;;;1.02;;
48034;SDS011;33812;46.480;6.834;2024-03-02T03:33:52;1.55;;;1.05;;
48034;SDS011;33812;46.480;6.834;2024-03-02T03:37:54;0.82;;;0.73;;
48034;SDS011;33812;46.480;6.834;2024-03-02T03:41:55;1.05;;;0.75;;
48034;SDS011;33812;46.480;6.834;2024-03-02T03:45:58;3.08;;;0.75;;
48034;SDS011;33812;46.480;6.834;2024-03-02T03:50:00;4.32;;;0.90;;
48034;SDS011;33812;46.480;6.834;2024-03-02T03:54:04;3.17;;;0.93;;
48034;SDS011;33812;46.480;6.834;2024-03-02T03:58:06;0.80;;;0.70;;
48034;SDS011;33812;46.480;6.834;2024-03-02T04:02:09;1.42;;;0.80;;
48034;SDS011;33812;46.480;6.834;2024-03-02T04:06:13;3.05;;;1.02;;
48034;SDS011;33812;46.480;6.834;2024-03-02T04:10:16;0.80;;;0.70;;
48034;SDS011;33812;46.480;6.834;2024-03-02T04:14:18;0.95;;;0.77;;
48034;SDS011;33812;46.480;6.834;2024-03-02T04:18:21;1.35;;;0.80;;
48034;SDS011;33812;46.480;6.834;2024-03-02T04:22:23;1.00;;;0.70;;
48034;SDS011;33812;46.480;6.834;2024-03-02T04:26:24;1.13;;;0.90;;
48034;SDS011;33812;46.480;6.834;2024-03-02T04:30:26;1.58;;;0.60;;
48034;SDS011;33812;46.480;6.834;2024-03-02T04:34:29;1.08;;;0.95;;
48034;SDS011;33812;46.480;6.834;2024-03-02T04:38:31;0.80;;;0.70;;
48034;SDS011;33812;46.480;6.834;2024-03-02T04:42:33;0.90;;;0.80;;
48034;SDS011;33812;46.480;6.834;2024-03-02T04:46:35;0.70;;;0.70;;
48034;SDS011;33812;46.480;6.834;2024-03-02T04:50:38;0.68;;;0.60;;
48034;SDS011;33812;46.480;6.834;2024-03-02T04:54:40;1.15;;;0.90;;
48034;SDS011;33812;46.480;6.834;2024-03-02T04:58:55;2.33;;;0.77;;
48034;SDS011;33812;46.480;6.834;2024-03-02T05:02:57;0.80;;;0.70;;
48034;SDS011;33812;46.480;6.834;2024-03-02T05:07:00;1.77;;;0.80;;
48034;SDS011;33812;46.480;6.834;2024-03-02T05:11:02;0.85;;;0.70;;
48034;SDS011;33812;46.480;6.834;2024-03-02T05:15:17;2.20;;;0.73;;
48034;SDS011;33812;46.480;6.834;2024-03-02T05:19:19;2.08;;;0.77;;
48034;SDS011;33812;46.480;6.834;2024-03-02T05:23:22;1.35;;;0.85;;
48034;SDS011;33812;46.480;6.834;2024-03-02T05:27:24;1.13;;;0.70;;
48034;SDS011;33812;46.480;6.834;2024-03-02T05:31:26;1.08;;;0.73;;
48034;SDS011;33812;46.480;6.834;2024-03-02T05:35:28;0.80;;;0.60;;
48034;SDS011;33812;46.480;6.834;2024-03-02T05:39:31;0.68;;;0.68;;
48034;SDS011;33812;46.480;6.834;2024-03-02T05:43:32;0.60;;;0.57;;
48034;SDS011;33812;46.480;6.834;2024-03-02T05:47:34;0.95;;;0.77;;
48034;SDS011;33812;46.480;6.834;2024-03-02T05:51:36;1.00;;;0.70;;
48034;SDS011;33812;46.480;6.834;2024-03-02T05:55:39;0.95;;;0.80;;
48034;SDS011;33812;46.480;6.834;2024-03-02T05:59:41;1.33;;;0.70;;
48034;SDS011;33812;46.480;6.834;2024-03-02T06:03:43;0.90;;;0.75;;
48034;SDS011;33812;46.480;6.834;2024-03-02T06:07:44;0.68;;;0.68;;
48034;SDS011;33812;46.480;6.834;2024-03-02T06:11:47;0.90;;;0.60;;
48034;SDS011;33812;46.480;6.834;2024-03-02T06:15:49;0.93;;;0.65;;
48034;SDS011;33812;46.480;6.834;2024-03-02T06:19:51;0.77;;;0.77;;
48034;SDS011;33812;46.480;6.834;2024-03-02T06:23:52;1.13;;;0.75;;
48034;SDS011;33812;46.480;6.834;2024-03-02T06:27:55;0.50;;;0.40;;
48034;SDS011;33812;46.480;6.834;2024-03-02T06:31:57;0.88;;;0.52;;
48034;SDS011;33812;46.480;6.834;2024-03-02T06:35:59;1.02;;;0.45;;
48034;SDS011;33812;46.480;6.834;2024-03-02T06:40:01;0.50;;;0.50;;
48034;SDS011;33812;46.480;6.834;2024-03-02T06:44:04;7.40;;;1.55;;
48034;SDS011;33812;46.480;6.834;2024-03-02T06:48:06;7.75;;;0.70;;
48034;SDS011;33812;46.480;6.834;2024-03-02T06:52:08;16.98;;;1.23;;
48034;SDS011;33812;46.480;6.834;2024-03-02T06:56:10;9.73;;;0.73;;
48034;SDS011;33812;46.480;6.834;2024-03-02T07:00:14;13.75;;;1.00;;
48034;SDS011;33812;46.480;6.834;2024-03-02T07:04:18;15.15;;;1.00;;
48034;SDS011;33812;46.480;6.834;2024-03-02T07:08:19;7.65;;;1.10;;
48034;SDS011;33812;46.480;6.834;2024-03-02T07:12:21;2.15;;;0.80;;
48034;SDS011;33812;46.480;6.834;2024-03-02T07:16:24;6.82;;;1.10;;
48034;SDS011;33812;46.480;6.834;2024-03-02T07:20:30;24.67;;;1.00;;
48034;SDS011;33812;46.480;6.834;2024-03-02T07:24:31;6.63;;;1.00;;
48034;SDS011;33812;46.480;6.834;2024-03-02T07:28:33;7.00;;;0.88;;
48034;SDS011;33812;46.480;6.834;2024-03-02T07:32:36;5.13;;;1.30;;
48034;SDS011;33812;46.480;6.834;2024-03-02T07:36:39;11.87;;;1.30;;
48034;SDS011;33812;46.480;6.834;2024-03-02T07:40:42;9.10;;;1.10;;
48034;SDS011;33812;46.480;6.834;2024-03-02T07:44:44;4.80;;;1.25;;
48034;SDS011;33812;46.480;6.834;2024-03-02T07:48:47;9.23;;;0.90;;
48034;SDS011;33812;46.480;6.834;2024-03-02T07:52:53;11.20;;;1.10;;
48034;SDS011;33812;46.480;6.834;2024-03-02T07:56:54;11.90;;;1.05;;
48034;SDS011;33812;46.480;6.834;2024-03-02T08:00:56;11.57;;;1.20;;
48034;SDS011;33812;46.480;6.834;2024-03-02T08:04:59;7.45;;;1.13;;
48034;SDS011;33812;46.480;6.834;2024-03-02T08:09:02;8.90;;;1.33;;
48034;SDS011;33812;46.480;6.834;2024-03-02T08:13:09;5.40;;;0.80;;
48034;SDS011;33812;46.480;6.834;2024-03-02T08:17:11;7.32;;;1.30;;
48034;SDS011;33812;46.480;6.834;2024-03-02T08:21:14;3.80;;;0.75;;
48034;SDS011;33812;46.480;6.834;2024-03-02T08:25:16;8.32;;;0.65;;
48034;SDS011;33812;46.480;6.834;2024-03-02T08:29:18;5.68;;;0.75;;
48034;SDS011;33812;46.480;6.834;2024-03-02T08:33:19;5.60;;;0.80;;
48034;SDS011;33812;46.480;6.834;2024-03-02T08:37:23;3.70;;;0.80;;
48034;SDS011;33812;46.480;6.834;2024-03-02T08:41:24;1.95;;;0.73;;
48034;SDS011;33812;46.480;6.834;2024-03-02T08:45:26;4.68;;;0.73;;
48034;SDS011;33812;46.480;6.834;2024-03-02T08:49:28;2.17;;;0.47;;
48034;SDS011;33812;46.480;6.834;2024-03-02T08:53:31;1.85;;;0.60;;
48034;SDS011;33812;46.480;6.834;2024-03-02T08:57:33;2.10;;;0.80;;
48034;SDS011;33812;46.480;6.834;2024-03-02T09:01:35;3.95;;;0.70;;
48034;SDS011;33812;46.480;6.834;2024-03-02T09:05:41;1.27;;;0.50;;
48034;SDS011;33812;46.480;6.834;2024-03-02T09:09:45;3.45;;;0.68;;
48034;SDS011;33812;46.480;6.834;2024-03-02T09:13:46;0.80;;;0.75;;
48034;SDS011;33812;46.480;6.834;2024-03-02T09:17:48;2.08;;;0.63;;
48034;SDS011;33812;46.480;6.834;2024-03-02T09:21:50;2.40;;;1.05;;
48034;SDS011;33812;46.480;6.834;2024-03-02T09:25:53;3.55;;;0.80;;
48034;SDS011;33812;46.480;6.834;2024-03-02T09:29:55;2.90;;;0.55;;
48034;SDS011;33812;46.480;6.834;2024-03-02T09:33:56;3.70;;;0.75;;
48034;SDS011;33812;46.480;6.834;2024-03-02T09:37:58;1.15;;;0.60;;
48034;SDS011;33812;46.480;6.834;2024-03-02T09:42:01;1.02;;;0.40;;
48034;SDS011;33812;46.480;6.834;2024-03-02T09:46:04;1.40;;;0.63;;
48034;SDS011;33812;46.480;6.834;2024-03-02T09:50:06;0.90;;;0.50;;
48034;SDS011;33812;46.480;6.834;2024-03-02T09:54:08;1.35;;;0.70;;
48034;SDS011;33812;46.480;6.834;2024-03-02T09:58:11;0.85;;;0.55;;
48034;SDS011;33812;46.480;6.834;2024-03-02T10:02:13;2.55;;;0.60;;
48034;SDS011;33812;46.480;6.834;2024-03-02T10:06:18;4.07;;;0.50;;
48034;SDS011;33812;46.480;6.834;2024-03-02T10:14:23;1.17;;;0.40;;
48034;SDS011;33812;46.480;6.834;2024-03-02T10:18:26;1.15;;;0.50;;
48034;SDS011;33812;46.480;6.834;2024-03-02T10:22:30;0.75;;;0.60;;
48034;SDS011;33812;46.480;6.834;2024-03-02T10:26:32;0.93;;;0.40;;
48034;SDS011;33812;46.480;6.834;2024-03-02T10:30:35;0.70;;;0.63;;
48034;SDS011;33812;46.480;6.834;2024-03-02T10:34:39;1.98;;;0.90;;
48034;SDS011;33812;46.480;6.834;2024-03-02T10:38:41;1.98;;;0.40;;
48034;SDS011;33812;46.480;6.834;2024-03-02T10:42:43;1.10;;;0.40;;
48034;SDS011;33812;46.480;6.834;2024-03-02T10:46:47;0.47;;;0.40;;
48034;SDS011;33812;46.480;6.834;2024-03-02T10:54:53;4.18;;;0.65;;
48034;SDS011;33812;46.480;6.834;2024-03-02T10:58:55;0.77;;;0.40;;
48034;SDS011;33812;46.480;6.834;2024-03-02T11:03:06;0.75;;;0.47;;
48034;SDS011;33812;46.480;6.834;2024-03-02T11:07:09;3.65;;;0.60;;
48034;SDS011;33812;46.480;6.834;2024-03-02T11:11:14;12.43;;;0.95;;
48034;SDS011;33812;46.480;6.834;2024-03-02T11:15:20;5.32;;;1.75;;
48034;SDS011;33812;46.480;6.834;2024-03-02T11:19:27;4.00;;;1.60;;
48034;SDS011;33812;46.480;6.834;2024-03-02T11:23:33;16.20;;;2.70;;
48034;SDS011;33812;46.480;6.834;2024-03-02T11:32:06;9.95;;;2.60;;
48034;SDS011;33812;46.480;6.834;2024-03-02T11:36:15;10.98;;;2.65;;
48034;SDS011;33812;46.480;6.834;2024-03-02T11:40:20;9.20;;;2.20;;
48034;SDS011;33812;46.480;6.834;2024-03-02T11:44:24;10.25;;;2.50;;
48034;SDS011;33812;46.480;6.834;2024-03-02T11:48:27;13.73;;;2.00;;
48034;SDS011;33812;46.480;6.834;2024-03-02T11:52:31;12.48;;;2.85;;
48034;SDS011;33812;46.480;6.834;2024-03-02T11:56:33;11.65;;;1.95;;
48034;SDS011;33812;46.480;6.834;2024-03-02T12:00:35;9.18;;;1.88;;
48034;SDS011;33812;46.480;6.834;2024-03-02T12:04:37;6.55;;;2.28;;
48034;SDS011;33812;46.480;6.834;2024-03-02T12:08:42;4.75;;;1.60;;
48034;SDS011;33812;46.480;6.834;2024-03-02T12:12:45;7.47;;;1.60;;
48034;SDS011;33812;46.480;6.834;2024-03-02T12:16:48;14.00;;;1.73;;
48034;SDS011;33812;46.480;6.834;2024-03-02T12:20:50;4.88;;;1.48;;
48034;SDS011;33812;46.480;6.834;2024-03-02T12:24:57;10.20;;;2.10;;
48034;SDS011;33812;46.480;6.834;2024-03-02T12:28:59;8.55;;;2.08;;
48034;SDS011;33812;46.480;6.834;2024-03-02T12:33:01;7.57;;;1.70;;
48034;SDS011;33812;46.480;6.834;2024-03-02T12:37:03;14.95;;;1.70;;
48034;SDS011;33812;46.480;6.834;2024-03-02T12:41:07;8.23;;;1.67;;
48034;SDS011;33812;46.480;6.834;2024-03-02T12:45:11;4.23;;;1.37;;
48034;SDS011;33812;46.480;6.834;2024-03-02T12:49:13;14.87;;;3.00;;
48034;SDS011;33812;46.480;6.834;2024-03-02T12:53:16;4.95;;;1.45;;
48034;SDS011;33812;46.480;6.834;2024-03-02T12:57:19;5.35;;;1.63;;
48034;SDS011;33812;46.480;6.834;2024-03-02T13:01:23;3.75;;;1.42;;
48034;SDS011;33812;46.480;6.834;2024-03-02T13:05:25;4.45;;;1.40;;
48034;SDS011;33812;46.480;6.834;2024-03-02T13:09:31;2.47;;;1.25;;
48034;SDS011;33812;46.480;6.834;2024-03-02T13:13:35;3.72;;;1.17;;
48034;SDS011;33812;46.480;6.834;2024-03-02T13:17:37;3.97;;;1.13;;
48034;SDS011;33812;46.480;6.834;2024-03-02T13:21:40;2.95;;;1.20;;
48034;SDS011;33812;46.480;6.834;2024-03-02T13:25:48;9.02;;;1.20;;
48034;SDS011;33812;46.480;6.834;2024-03-02T13:29:56;7.00;;;1.10;;
48034;SDS011;33812;46.480;6.834;2024-03-02T13:34:04;4.88;;;1.25;;
48034;SDS011;33812;46.480;6.834;2024-03-02T13:38:06;7.75;;;1.17;;
48034;SDS011;33812;46.480;6.834;2024-03-02T13:42:08;3.50;;;1.10;;
48034;SDS011;33812;46.480;6.834;2024-03-02T13:46:14;6.00;;;1.42;;
48034;SDS011;33812;46.480;6.834;2024-03-02T13:50:17;4.55;;;1.40;;
48034;SDS011;33812;46.480;6.834;2024-03-02T13:54:18;5.68;;;0.90;;
48034;SDS011;33812;46.480;6.834;2024-03-02T13:58:22;1.33;;;0.93;;
48034;SDS011;33812;46.480;6.834;2024-03-02T14:02:26;4.10;;;1.43;;
48034;SDS011;33812;46.480;6.834;2024-03-02T14:06:28;2.85;;;1.00;;
48034;SDS011;33812;46.480;6.834;2024-03-02T14:10:30;3.20;;;1.05;;
48034;SDS011;33812;46.480;6.834;2024-03-02T14:14:33;9.27;;;1.20;;
48034;SDS011;33812;46.480;6.834;2024-03-02T14:18:37;3.95;;;0.93;;
48034;SDS011;33812;46.480;6.834;2024-03-02T14:22:39;2.53;;;1.15;;
48034;SDS011;33812;46.480;6.834;2024-03-02T14:26:42;8.10;;;1.08;;
48034;SDS011;33812;46.480;6.834;2024-03-02T14:30:45;2.38;;;0.90;;
48034;SDS011;33812;46.480;6.834;2024-03-02T14:34:49;2.17;;;1.40;;
48034;SDS011;33812;46.480;6.834;2024-03-02T14:38:51;2.50;;;1.38;;
48034;SDS011;33812;46.480;6.834;2024-03-02T14:42:52;2.00;;;0.80;;
48034;SDS011;33812;46.480;6.834;2024-03-02T14:46:54;2.95;;;0.90;;
48034;SDS011;33812;46.480;6.834;2024-03-02T14:51:01;2.55;;;0.60;;
48034;SDS011;33812;46.480;6.834;2024-03-02T14:55:04;5.63;;;1.25;;
48034;SDS011;33812;46.480;6.834;2024-03-02T14:59:08;1.63;;;1.02;;
48034;SDS011;33812;46.480;6.834;2024-03-02T15:03:10;2.00;;;0.90;;
48034;SDS011;33812;46.480;6.834;2024-03-02T15:07:16;1.13;;;0.77;;
48034;SDS011;33812;46.480;6.834;2024-03-02T15:11:18;7.70;;;0.80;;
48034;SDS011;33812;46.480;6.834;2024-03-02T15:15:19;7.63;;;0.63;;
48034;SDS011;33812;46.480;6.834;2024-03-02T15:19:21;6.45;;;0.90;;
48034;SDS011;33812;46.480;6.834;2024-03-02T15:23:24;6.43;;;1.08;;
48034;SDS011;33812;46.480;6.834;2024-03-02T15:27:26;3.90;;;0.82;;
48034;SDS011;33812;46.480;6.834;2024-03-02T15:31:28;11.45;;;1.40;;
48034;SDS011;33812;46.480;6.834;2024-03-02T15:35:30;6.47;;;1.17;;
48034;SDS011;33812;46.480;6.834;2024-03-02T15:39:33;9.32;;;0.93;;
48034;SDS011;33812;46.480;6.834;2024-03-02T15:43:35;6.43;;;1.40;;
48034;SDS011;33812;46.480;6.834;2024-03-02T15:47:40;12.95;;;0.88;;
48034;SDS011;33812;46.480;6.834;2024-03-02T15:51:42;10.85;;;1.30;;
48034;SDS011;33812;46.480;6.834;2024-03-02T15:55:45;11.75;;;1.25;;
48034;SDS011;33812;46.480;6.834;2024-03-02T15:59:47;7.15;;;1.02;;
48034;SDS011;33812;46.480;6.834;2024-03-02T16:03:49;2.33;;;0.90;;
48034;SDS011;33812;46.480;6.834;2024-03-02T16:07:51;7.32;;;1.20;;
48034;SDS011;33812;46.480;6.834;2024-03-02T16:11:54;4.47;;;0.98;;
48034;SDS011;33812;46.480;6.834;2024-03-02T16:15:56;4.43;;;1.10;;
48034;SDS011;33812;46.480;6.834;2024-03-02T16:19:57;3.65;;;1.48;;
48034;SDS011;33812;46.480;6.834;2024-03-02T16:23:59;2.42;;;0.98;;
48034;SDS011;33812;46.480;6.834;2024-03-02T16:28:02;2.28;;;1.00;;
48034;SDS011;33812;46.480;6.834;2024-03-02T16:32:05;3.60;;;1.45;;
48034;SDS011;33812;46.480;6.834;2024-03-02T16:36:07;3.45;;;1.17;;
48034;SDS011;33812;46.480;6.834;2024-03-02T16:40:09;1.25;;;0.98;;
48034;SDS011;33812;46.480;6.834;2024-03-02T16:44:14;2.30;;;0.97;;
48034;SDS011;33812;46.480;6.834;2024-03-02T16:48:16;6.28;;;1.02;;
48034;SDS011;33812;46.480;6.834;2024-03-02T16:52:18;2.13;;;0.90;;
48034;SDS011;33812;46.480;6.834;2024-03-02T16:56:21;1.90;;;1.15;;
48034;SDS011;33812;46.480;6.834;2024-03-02T17:00:24;1.05;;;0.80;;
48034;SDS011;33812;46.480;6.834;2024-03-02T17:04:26;1.85;;;1.25;;
48034;SDS011;33812;46.480;6.834;2024-03-02T17:08:27;1.45;;;0.85;;
48034;SDS011;33812;46.480;6.834;2024-03-02T17:12:29;2.03;;;1.05;;
48034;SDS011;33812;46.480;6.834;2024-03-02T17:16:32;4.38;;;0.90;;
48034;SDS011;33812;46.480;6.834;2024-03-02T17:20:34;5.18;;;1.10;;
48034;SDS011;33812;46.480;6.834;2024-03-02T17:24:35;1.02;;;0.82;;
48034;SDS011;33812;46.480;6.834;2024-03-02T17:28:37;1.30;;;0.90;;
48034;SDS011;33812;46.480;6.834;2024-03-02T17:32:42;2.35;;;1.17;;
48034;SDS011;33812;46.480;6.834;2024-03-02T17:36:44;1.70;;;1.30;;
48034;SDS011;33812;46.480;6.834;2024-03-02T17:40:45;2.10;;;0.90;;
48034;SDS011;33812;46.480;6.834;2024-03-02T17:44:47;1.60;;;0.98;;
48034;SDS011;33812;46.480;6.834;2024-03-02T17:48:50;1.52;;;0.93;;
48034;SDS011;33812;46.480;6.834;2024-03-02T17:52:52;1.92;;;1.17;;
48034;SDS011;33812;46.480;6.834;2024-03-02T17:56:55;2.20;;;1.13;;
48034;SDS011;33812;46.480;6.834;2024-03-02T18:00:57;1.95;;;1.00;;
48034;SDS011;33812;46.480;6.834;2024-03-02T18:05:00;2.42;;;0.90;;
48034;SDS011;33812;46.480;6.834;2024-03-02T18:13:07;1.10;;;0.80;;
48034;SDS011;33812;46.480;6.834;2024-03-02T18:17:08;1.45;;;0.98;;
48034;SDS011;33812;46.480;6.834;2024-03-02T18:21:13;0.85;;;0.80;;
48034;SDS011;33812;46.480;6.834;2024-03-02T18:25:15;1.42;;;0.90;;
48034;SDS011;33812;46.480;6.834;2024-03-02T18:29:16;1.90;;;1.20;;
48034;SDS011;33812;46.480;6.834;2024-03-02T18:33:18;2.00;;;0.80;;
48034;SDS011;33812;46.480;6.834;2024-03-02T18:37:21;1.60;;;0.90;;
48034;SDS011;33812;46.480;6.834;2024-03-02T18:41:23;2.00;;;1.20;;
48034;SDS011;33812;46.480;6.834;2024-03-02T18:45:25;1.10;;;0.90;;
48034;SDS011;33812;46.480;6.834;2024-03-02T18:49:27;1.77;;;1.00;;
48034;SDS011;33812;46.480;6.834;2024-03-02T18:53:31;1.45;;;1.25;;
48034;SDS011;33812;46.480;6.834;2024-03-02T18:57:32;1.45;;;0.88;;
48034;SDS011;33812;46.480;6.834;2024-03-02T19:01:34;2.35;;;1.05;;
48034;SDS011;33812;46.480;6.834;2024-03-02T19:05:36;1.63;;;1.02;;
48034;SDS011;33812;46.480;6.834;2024-03-02T19:09:39;1.35;;;0.88;;
48034;SDS011;33812;46.480;6.834;2024-03-02T19:13:41;1.30;;;0.90;;
48034;SDS011;33812;46.480;6.834;2024-03-02T19:17:43;1.55;;;1.02;;
48034;SDS011;33812;46.480;6.834;2024-03-02T19:21:45;0.80;;;0.80;;
48034;SDS011;33812;46.480;6.834;2024-03-02T19:25:48;1.27;;;0.88;;
48034;SDS011;33812;46.480;6.834;2024-03-02T19:29:50;1.25;;;0.88;;
48034;SDS011;33812;46.480;6.834;2024-03-02T19:33:52;1.48;;;0.90;;
48034;SDS011;33812;46.480;6.834;2024-03-02T19:37:53;1.08;;;0.80;;
48034;SDS011;33812;46.480;6.834;2024-03-02T19:41:57;1.33;;;0.95;;
48034;SDS011;33812;46.480;6.834;2024-03-02T19:46:00;1.20;;;0.80;;
48034;SDS011;33812;46.480;6.834;2024-03-02T19:50:03;1.25;;;0.75;;
48034;SDS011;33812;46.480;6.834;2024-03-02T19:54:05;1.05;;;0.95;;
48034;SDS011;33812;46.480;6.834;2024-03-02T19:58:09;2.03;;;1.00;;
48034;SDS011;33812;46.480;6.834;2024-03-02T20:02:11;0.77;;;0.60;;
48034;SDS011;33812;46.480;6.834;2024-03-02T20:06:13;1.00;;;0.80;;
48034;SDS011;33812;46.480;6.834;2024-03-02T20:10:15;0.70;;;0.70;;
48034;SDS011;33812;46.480;6.834;2024-03-02T20:14:18;1.42;;;0.90;;
48034;SDS011;33812;46.480;6.834;2024-03-02T20:18:20;0.95;;;0.75;;
48034;SDS011;33812;46.480;6.834;2024-03-02T20:22:21;1.10;;;0.73;;
48034;SDS011;33812;46.480;6.834;2024-03-02T20:26:23;0.90;;;0.80;;
48034;SDS011;33812;46.480;6.834;2024-03-02T20:30:26;0.93;;;0.70;;
48034;SDS011;33812;46.480;6.834;2024-03-02T20:34:28;2.75;;;0.60;;
48034;SDS011;33812;46.480;6.834;2024-03-02T20:38:30;4.68;;;1.00;;
48034;SDS011;33812;46.480;6.834;2024-03-02T20:42:32;1.27;;;0.90;;
48034;SDS011;33812;46.480;6.834;2024-03-02T20:46:35;5.03;;;1.00;;
48034;SDS011;33812;46.480;6.834;2024-03-02T20:50:37;5.03;;;1.00;;
48034;SDS011;33812;46.480;6.834;2024-03-02T20:54:39;7.80;;;1.27;;
48034;SDS011;33812;46.480;6.834;2024-03-02T20:58:41;4.35;;;1.10;;
48034;SDS011;33812;46.480;6.834;2024-03-02T21:02:46;19.75;;;2.22;;
48034;SDS011;33812;46.480;6.834;2024-03-02T21:06:48;8.60;;;2.45;;
48034;SDS011;33812;46.480;6.834;2024-03-02T21:10:50;9.90;;;1.90;;
48034;SDS011;33812;46.480;6.834;2024-03-02T21:14:52;15.25;;;2.17;;
48034;SDS011;33812;46.480;6.834;2024-03-02T21:18:55;10.35;;;2.70;;
48034;SDS011;33812;46.480;6.834;2024-03-02T21:22:57;26.83;;;3.38;;
48034;SDS011;33812;46.480;6.834;2024-03-02T21:26:59;21.42;;;3.20;;
48034;SDS011;33812;46.480;6.834;2024-03-02T21:31:01;26.05;;;3.13;;
48034;SDS011;33812;46.480;6.834;2024-03-02T21:35:05;23.23;;;3.25;;
48034;SDS011;33812;46.480;6.834;2024-03-02T21:39:09;16.88;;;3.47;;
48034;SDS011;33812;46.480;6.834;2024-03-02T21:43:10;17.10;;;3.15;;
48034;SDS011;33812;46.480;6.834;2024-03-02T21:47:12;12.02;;;2.65;;
48034;SDS011;33812;46.480;6.834;2024-03-02T21:51:16;14.93;;;2.78;;
48034;SDS011;33812;46.480;6.834;2024-03-02T21:55:18;16.15;;;2.45;;
48034;SDS011;33812;46.480;6.834;2024-03-02T21:59:20;12.35;;;2.20;;
48034;SDS011;33812;46.480;6.834;2024-03-02T22:03:22;13.77;;;2.13;;
48034;SDS011;33812;46.480;6.834;2024-03-02T22:07:25;16.33;;;2.05;;
48034;SDS011;33812;46.480;6.834;2024-03-02T22:11:27;14.40;;;3.03;;
48034;SDS011;33812;46.480;6.834;2024-03-02T22:15:29;11.25;;;1.98;;
48034;SDS011;33812;46.480;6.834;2024-03-02T22:19:30;7.13;;;1.98;;
48034;SDS011;33812;46.480;6.834;2024-03-02T22:23:36;9.73;;;1.70;;
48034;SDS011;33812;46.480;6.834;2024-03-02T22:27:38;9.88;;;1.80;;
48034;SDS011;33812;46.480;6.834;2024-03-02T22:31:39;5.72;;;1.88;;
48034;SDS011;33812;46.480;6.834;2024-03-02T22:35:41;10.73;;;2.72;;
48034;SDS011;33812;46.480;6.834;2024-03-02T22:39:44;11.43;;;1.58;;
48034;SDS011;33812;46.480;6.834;2024-03-02T22:43:46;8.30;;;1.92;;
48034;SDS011;33812;46.480;6.834;2024-03-02T22:47:48;8.82;;;2.17;;
48034;SDS011;33812;46.480;6.834;2024-03-02T22:51:50;9.55;;;1.63;;
48034;SDS011;33812;46.480;6.834;2024-03-02T22:55:53;12.77;;;1.40;;
48034;SDS011;33812;46.480;6.834;2024-03-02T22:59:55;7.18;;;1.48;;
48034;SDS011;33812;46.480;6.834;2024-03-02T23:03:57;5.00;;;1.52;;
48034;SDS011;33812;46.480;6.834;2024-03-02T23:07:59;2.30;;;1.15;;
48034;SDS011;33812;46.480;6.834;2024-03-02T23:12:02;3.58;;;1.20;;
48034;SDS011;33812;46.480;6.834;2024-03-02T23:16:05;4.60;;;1.30;;
48034;SDS011;33812;46.480;6.834;2024-03-02T23:20:07;5.40;;;1.40;;
48034;SDS011;33812;46.480;6.834;2024-03-02T23:24:09;6.88;;;1.52;;
48034;SDS011;33812;46.480;6.834;2024-03-02T23:28:12;3.08;;;1.20;;
48034;SDS011;33812;46.480;6.834;2024-03-02T23:32:14;4.45;;;1.55;;
48034;SDS011;33812;46.480;6.834;2024-03-02T23:36:16;3.75;;;1.50;;
48034;SDS011;33812;46.480;6.834;2024-03-02T23:40:18;7.32;;;1.30;;
48034;SDS011;33812;46.480;6.834;2024-03-02T23:44:46;4.70;;;1.45;;
48034;SDS011;33812;46.480;6.834;2024-03-02T23:48:48;3.58;;;1.30;;
48034;SDS011;33812;46.480;6.834;2024-03-02T23:52:50;4.43;;;2.20;;
48034;SDS011;33812;46.480;6.834;2024-03-02T23:56:52;2.33;;;1.25;;
